Time;durP1;ratioP1;P1;durP2;ratioP2;P2;SDS_P1;SDS_P2;PMS_P1;PMS_P2;Temp;Humidity;BMP_temperature;BMP_pressure;BME280_temperature;BME280_humidity;BME280_pressure;Samples;Min_cycle;Max_cycle;Signal;HPM_P1;HPM_P2
2022/12/30 00:01:21;;;;;;;8.93;4.80;;;;;;;8.26;77.42;100181.27;1661490;84;20985;-80
2022/12/30 00:03:48;;;;;;;7.90;5.08;;;;;;;8.25;77.42;100186.86;1664692;84;21079;-80
2022/12/30 00:06:19;;;;;;;10.40;5.00;;;;;;;8.25;77.41;100190.72;1664884;85;21593;-80
2022/12/30 00:08:50;;;;;;;8.93;4.65;;;;;;;8.23;77.43;100197.62;1645688;85;21064;-79
2022/12/30 00:11:29;;;;;;;7.55;4.47;;;;;;;8.21;77.42;100195.50;1662464;84;21119;-80
2022/12/30 00:34:01;;;;;;;4.30;2.62;;;;;;;8.21;77.50;100202.38;1657049;84;21101;-80
2022/12/30 00:36:29;;;;;;;5.95;3.00;;;;;;;8.21;77.52;100207.09;1662846;85;21056;-79
2022/12/30 00:38:56;;;;;;;5.62;3.02;;;;;;;8.24;77.51;100208.77;1661511;85;21125;-79
2022/12/30 00:44:08;;;;;;;7.12;2.40;;;;;;;8.26;77.51;100202.73;1660539;84;21104;-80
2022/12/30 00:46:37;;;;;;;5.35;3.25;;;;;;;8.26;77.52;100211.75;1656301;85;21043;-80
2022/12/30 00:57:18;;;;;;;6.50;2.52;;;;;;;8.28;77.50;100208.71;1672795;84;21043;-79
2022/12/30 00:59:44;;;;;;;5.50;3.00;;;;;;;8.27;77.51;100208.30;1667392;84;21310;-79
2022/12/30 01:02:11;;;;;;;3.35;2.58;;;;;;;8.27;77.50;100210.02;1671268;84;21059;-80
2022/12/30 01:04:37;;;;;;;6.00;2.67;;;;;;;8.25;77.51;100216.48;1667401;84;21946;-79
2022/12/30 01:07:04;;;;;;;5.15;3.30;;;;;;;8.23;77.50;100223.81;1668781;84;21099;-79
2022/12/30 01:09:30;;;;;;;3.10;2.80;;;;;;;8.19;77.47;100223.00;1672691;84;21072;-79
2022/12/30 01:12:09;;;;;;;6.10;3.17;;;;;;;8.17;77.50;100226.46;1671011;84;21063;-79
2022/12/30 01:14:46;;;;;;;6.58;3.05;;;;;;;8.14;77.51;100222.63;1665066;84;21514;-79
2022/12/30 01:17:20;;;;;;;4.35;3.05;;;;;;;8.12;77.52;100223.09;1674875;84;21333;-79
2022/12/30 01:19:46;;;;;;;4.03;2.55;;;;;;;8.09;77.55;100223.98;1669702;84;21031;-79
2022/12/30 01:22:14;;;;;;;13.68;3.10;;;;;;;8.07;77.54;100221.00;1561590;83;5001515;-79
2022/12/30 01:24:41;;;;;;;3.52;2.87;;;;;;;8.05;77.54;100221.02;1671347;84;21116;-79
2022/12/30 01:27:08;;;;;;;3.45;2.67;;;;;;;8.02;77.54;100224.07;1659467;84;21096;-80
2022/12/30 01:29:38;;;;;;;4.22;2.60;;;;;;;8.00;77.55;100224.52;1669391;84;21110;-79
2022/12/30 01:32:12;;;;;;;4.15;2.80;;;;;;;7.99;77.55;100227.53;1672148;84;21084;-79
2022/12/30 01:34:39;;;;;;;4.35;2.20;;;;;;;7.97;77.56;100225.41;1674970;84;21101;-79
2022/12/30 01:37:07;;;;;;;4.90;2.15;;;;;;;7.96;77.59;100227.13;1669250;84;21065;-79
2022/12/30 01:39:33;;;;;;;6.90;2.80;;;;;;;7.94;77.56;100231.44;1669307;84;21036;-79
2022/12/30 01:42:01;;;;;;;4.10;2.70;;;;;;;7.93;77.58;100240.03;1671528;84;21107;-79
2022/12/30 01:44:53;;;;;;;5.37;2.37;;;;;;;7.92;77.60;100237.05;1682793;84;21068;-79
2022/12/30 01:47:40;;;;;;;3.22;2.30;;;;;;;7.93;77.61;100240.47;1671623;84;21076;-79
2022/12/30 01:50:17;;;;;;;4.42;2.40;;;;;;;7.93;77.65;100243.89;1596802;88;21104;-80
2022/12/30 01:53:22;;;;;;;6.12;2.22;;;;;;;7.95;77.65;100249.03;1616408;87;21049;-80
2022/12/30 01:56:05;;;;;;;3.30;2.17;;;;;;;7.96;77.65;100249.02;1618837;87;21215;-79
2022/12/30 01:58:37;;;;;;;4.33;2.67;;;;;;;7.96;77.65;100246.87;1619733;87;21616;-79
2022/12/30 02:01:03;;;;;;;4.78;2.47;;;;;;;7.97;77.64;100253.73;1598908;87;21089;-80
2022/12/30 02:03:39;;;;;;;3.00;2.60;;;;;;;7.98;77.63;100252.86;1611152;87;21105;-80
2022/12/30 02:06:07;;;;;;;3.05;2.10;;;;;;;7.98;77.65;100252.86;1621088;87;21076;-79
2022/12/30 02:08:35;;;;;;;4.10;2.35;;;;;;;7.98;77.65;100264.01;1624556;87;21559;-79
2022/12/30 02:11:04;;;;;;;4.92;2.30;;;;;;;7.99;77.65;100257.14;1630266;86;21110;-80
2022/12/30 02:13:31;;;;;;;7.28;2.02;;;;;;;7.98;77.63;100261.44;1616882;87;21344;-80
2022/12/30 02:16:28;;;;;;;4.42;2.62;;;;;;;8.00;77.62;100267.00;1631931;87;20997;-80
2022/12/30 02:19:12;;;;;;;4.65;1.80;;;;;;;8.00;77.65;100265.72;1634896;86;21060;-80
2022/12/30 02:21:49;;;;;;;3.27;2.10;;;;;;;7.99;77.62;100268.72;1619957;87;20982;-80
2022/12/30 02:24:39;;;;;;;5.42;1.92;;;;;;;7.97;77.62;100264.02;1619605;86;21019;-80
2022/12/30 02:27:27;;;;;;;5.03;2.40;;;;;;;7.94;77.60;100267.92;1633131;87;20914;-80
2022/12/30 02:30:07;;;;;;;3.75;2.00;;;;;;;7.91;77.61;100267.52;1631676;87;20917;-80
2022/12/30 02:33:02;;;;;;;4.72;1.90;;;;;;;7.89;77.62;100262.82;1601406;87;21415;-79
2022/12/30 02:35:50;;;;;;;5.47;1.65;;;;;;;7.87;77.62;100268.85;1629770;86;21984;-80
2022/12/30 02:38:31;;;;;;;4.37;1.85;;;;;;;7.85;77.63;100268.02;1570045;89;21196;-79
2022/12/30 02:46:56;;;;;;;5.67;1.70;;;;;;;7.77;77.66;100271.98;1574663;89;21271;-79
2022/12/30 02:49:25;;;;;;;5.42;1.85;;;;;;;7.74;77.66;100277.16;1565948;89;21733;-79
2022/12/30 02:54:39;;;;;;;2.60;1.75;;;;;;;7.69;77.67;100277.64;1546012;90;21093;-79
2022/12/30 02:57:28;;;;;;;3.10;1.75;;;;;;;7.67;77.69;100279.38;1537067;91;21222;-80
2022/12/30 03:06:14;;;;;;;5.25;2.25;;;;;;;7.64;77.70;100284.12;1491717;94;21564;-79
2022/12/30 03:09:12;;;;;;;4.20;1.80;;;;;;;7.62;77.73;100289.71;1468321;95;21191;-79
2022/12/30 03:12:00;;;;;;;3.33;1.90;;;;;;;7.62;77.78;100284.56;1484949;94;21115;-79
2022/12/30 03:14:47;;;;;;;5.58;1.87;;;;;;;7.61;77.72;100291.86;1487783;94;21115;-79
2022/12/30 03:17:30;;;;;;;5.03;1.90;;;;;;;7.59;77.76;100292.31;1528008;92;21083;-79
2022/12/30 03:20:01;;;;;;;3.55;1.90;;;;;;;7.58;77.75;100294.90;1533357;92;21637;-80
2022/12/30 03:28:11;;;;;;;2.80;1.45;;;;;;;7.53;77.76;100288.94;1523991;92;21193;-79
2022/12/30 03:30:51;;;;;;;5.10;1.67;;;;;;;7.52;77.77;100294.95;1536310;92;21857;-80
2022/12/30 03:33:18;;;;;;;2.72;1.75;;;;;;;7.51;77.78;100298.39;1532728;92;21115;-80
2022/12/30 03:36:08;;;;;;;3.10;1.75;;;;;;;7.50;77.79;100298.82;1533736;92;21106;-80
2022/12/30 03:38:39;;;;;;;5.95;1.75;;;;;;;7.50;77.80;100301.83;1574453;88;21117;-80
2022/12/30 03:41:08;;;;;;;2.95;1.70;;;;;;;7.49;77.82;100303.98;1574528;89;21174;-80
2022/12/30 03:43:36;;;;;;;3.85;1.67;;;;;;;7.48;77.82;100311.28;1629279;86;21196;-80
2022/12/30 03:46:02;;;;;;;2.65;1.75;;;;;;;7.47;77.82;100314.28;1612277;86;21064;-80
2022/12/30 03:48:29;;;;;;;3.35;1.85;;;;;;;7.47;77.81;100315.57;1625987;86;21096;-79
2022/12/30 03:53:26;;;;;;;2.35;1.57;;;;;;;7.49;77.85;100325.84;1795420;77;22066;-78
2022/12/30 03:55:52;;;;;;;3.42;2.12;;;;;;;7.44;77.88;100336.17;1774861;79;20991;-79
2022/12/30 03:58:19;;;;;;;2.08;1.47;;;;;;;7.46;77.86;100341.30;1769950;79;21123;-79
2022/12/30 04:00:45;;;;;;;2.10;1.40;;;;;;;7.45;77.89;100337.02;1788947;79;20986;-79
2022/12/30 04:03:11;;;;;;;2.80;1.75;;;;;;;7.48;77.91;100347.30;1763362;79;20995;-78
2022/12/30 04:05:38;;;;;;;3.22;1.45;;;;;;;7.50;77.92;100349.42;1773613;79;21007;-79
2022/12/30 04:08:05;;;;;;;3.17;1.40;;;;;;;7.52;77.93;100361.84;1779692;79;21015;-78
2022/12/30 04:10:31;;;;;;;;;;;;;;;7.53;77.93;100363.12;1770632;79;21618;-79
2022/12/30 04:12:58;;;;;;;4.05;1.67;;;;;;;7.55;78.01;100365.67;1764851;79;20456;-79
2022/12/30 04:15:24;;;;;;;2.98;1.72;;;;;;;7.58;77.96;100372.94;1774307;79;21393;-79
2022/12/30 04:17:50;;;;;;;3.17;1.62;;;;;;;7.61;77.99;100375.92;1767730;79;21067;-78
2022/12/30 04:20:17;;;;;;;3.77;1.80;;;;;;;7.63;77.96;100378.05;1764860;79;21027;-78
2022/12/30 04:22:44;;;;;;;4.70;1.77;;;;;;;7.63;77.97;100381.48;1771579;79;21727;-78
2022/12/30 04:25:10;;;;;;;4.00;1.50;;;;;;;7.65;77.97;100382.75;1775217;79;21086;-78
2022/12/30 04:27:37;;;;;;;2.65;1.25;;;;;;;7.67;77.97;100393.89;1766353;79;21040;-78
2022/12/30 04:30:05;;;;;;;4.30;1.72;;;;;;;7.70;78.01;100391.73;1771986;79;21055;-79
2022/12/30 04:32:31;;;;;;;4.53;2.20;;;;;;;7.71;77.99;100397.30;1755799;79;21066;-78
2022/12/30 04:34:58;;;;;;;3.98;2.47;;;;;;;7.68;77.96;100399.45;1745264;80;21607;-78
2022/12/30 04:37:24;;;;;;;;;;;;;;;7.68;77.95;100398.17;1745383;80;21517;-78
2022/12/30 04:39:51;;;;;;;3.35;1.77;;;;;;;7.67;77.94;100396.90;1734659;80;20198;-79
2022/12/30 04:42:17;;;;;;;4.22;1.75;;;;;;;7.67;77.99;100404.62;1751057;80;21040;-78
2022/12/30 04:44:44;;;;;;;5.92;1.92;;;;;;;7.67;77.97;100402.89;1720103;81;21036;-78
2022/12/30 04:47:10;;;;;;;6.05;1.85;;;;;;;7.63;77.92;100403.35;1719683;81;21973;-79
2022/12/30 04:49:36;;;;;;;4.03;1.22;;;;;;;7.58;77.91;100403.81;1713221;81;21612;-79
2022/12/30 04:52:03;;;;;;;5.37;1.65;;;;;;;7.55;77.93;100399.13;1723483;81;21582;-79
2022/12/30 04:54:30;;;;;;;3.95;1.52;;;;;;;7.51;77.90;100413.73;1703737;81;21585;-79
2022/12/30 04:56:57;;;;;;;3.40;1.40;;;;;;;7.47;77.89;100414.61;1713198;81;21657;-79
2022/12/30 04:59:23;;;;;;;4.25;1.45;;;;;;;7.43;77.89;100418.50;1715553;81;21100;-78
2022/12/30 05:01:50;;;;;;;2.77;1.45;;;;;;;7.40;77.94;100423.23;1718702;81;21052;-78
2022/12/30 05:04:16;;;;;;;7.00;1.30;;;;;;;7.37;77.92;100429.68;1706716;81;21061;-79
2022/12/30 05:06:43;;;;;;;2.95;1.22;;;;;;;7.34;77.92;100431.41;1716604;81;21466;-78
2022/12/30 05:09:09;;;;;;;2.25;1.00;;;;;;;7.31;77.94;100429.28;1718349;81;21101;-78
2022/12/30 05:11:36;;;;;;;4.05;1.45;;;;;;;7.26;77.88;100427.20;1723577;81;21049;-79
2022/12/30 05:14:02;;;;;;;3.42;1.45;;;;;;;7.25;77.92;100431.06;1723857;80;21093;-79
2022/12/30 05:16:28;;;;;;;4.85;1.27;;;;;;;7.21;77.88;100427.66;1723869;81;21089;-78
2022/12/30 05:18:55;;;;;;;7.75;1.82;;;;;;;7.17;77.89;100440.10;1719454;81;21084;-78
2022/12/30 05:21:23;;;;;;;5.45;1.52;;;;;;;7.14;77.90;100435.41;1720822;81;21124;-79
2022/12/30 05:26:34;;;;;;;6.47;2.47;;;;;;;7.08;77.87;100440.14;1723247;81;21415;-78
2022/12/30 05:29:00;;;;;;;8.48;2.83;;;;;;;7.04;77.88;100446.16;1721239;81;21096;-78
2022/12/30 05:31:27;;;;;;;10.40;3.12;;;;;;;7.01;77.84;100452.60;1724622;81;21080;-78
2022/12/30 05:33:53;;;;;;;7.12;2.90;;;;;;;6.98;77.84;100455.18;1722722;81;21160;-78
2022/12/30 05:36:20;;;;;;;6.22;2.08;;;;;;;6.95;77.82;100462.91;1723874;81;21072;-78
2022/12/30 05:38:46;;;;;;;5.15;1.98;;;;;;;6.91;77.81;100471.48;1723416;81;21065;-78
2022/12/30 05:41:13;;;;;;;3.77;1.40;;;;;;;6.88;77.79;100479.20;1723888;81;21040;-78
2022/12/30 05:43:39;;;;;;;6.35;1.90;;;;;;;6.86;77.79;100484.35;1724964;81;21053;-78
2022/12/30 05:46:06;;;;;;;8.38;2.08;;;;;;;6.82;77.79;100490.36;1722005;81;21084;-78
2022/12/30 05:48:32;;;;;;;4.37;1.55;;;;;;;6.80;77.79;100487.37;1724846;81;21659;-78
2022/12/30 05:50:58;;;;;;;5.70;2.08;;;;;;;6.77;77.76;100493.37;1724807;81;21314;-78
2022/12/30 05:53:25;;;;;;;5.05;1.80;;;;;;;6.74;77.76;100494.70;1733357;81;21040;-78
2022/12/30 05:55:52;;;;;;;9.18;1.65;;;;;;;6.71;77.74;100499.84;1739545;80;21107;-78
2022/12/30 05:58:19;;;;;;;6.45;1.87;;;;;;;6.67;77.74;100500.70;1747673;80;21134;-78
2022/12/30 06:00:46;;;;;;;7.28;1.55;;;;;;;6.63;77.69;100508.84;1705158;82;22046;-78
2022/12/30 06:03:12;;;;;;;7.78;1.42;;;;;;;6.62;77.71;100524.27;1699864;82;21040;-78
2022/12/30 06:05:41;;;;;;;5.83;1.95;;;;;;;6.59;77.72;100524.27;1698584;82;21600;-78
2022/12/30 06:08:08;;;;;;;4.60;1.35;;;;;;;6.56;77.67;100523.84;1702075;82;21346;-79
2022/12/30 06:10:35;;;;;;;;;;;;;;;6.56;77.68;100528.13;1734092;81;21499;-78
2022/12/30 06:13:02;;;;;;;7.50;1.40;;;;;;;6.54;77.66;100528.13;1727069;81;21029;-78
2022/12/30 06:15:28;;;;;;;9.08;1.92;;;;;;;6.54;77.68;100521.70;1725264;81;21053;-78
2022/12/30 06:17:55;;;;;;;5.12;1.47;;;;;;;6.53;77.67;100530.69;1696244;82;21095;-78
2022/12/30 06:20:21;;;;;;;5.85;1.95;;;;;;;6.52;77.66;100540.11;1698012;82;21050;-78
2022/12/30 06:22:50;;;;;;;4.25;1.90;;;;;;;6.50;77.60;100547.39;1706275;82;21088;-79
2022/12/30 06:25:16;;;;;;;6.78;1.80;;;;;;;6.48;77.65;100552.53;1664164;82;22348;-78
2022/12/30 06:27:43;;;;;;;5.05;1.67;;;;;;;6.46;77.62;100555.53;1688981;82;21464;-80
2022/12/30 06:30:11;;;;;;;8.18;1.60;;;;;;;6.44;77.60;100555.95;1700268;82;21155;-78
2022/12/30 06:32:38;;;;;;;6.12;1.32;;;;;;;6.44;77.62;100566.23;1703007;82;20871;-77
2022/12/30 06:35:06;;;;;;;3.62;1.10;;;;;;;6.41;77.58;100558.52;1701831;82;20977;-78
2022/12/30 06:37:32;;;;;;;3.55;1.25;;;;;;;6.39;77.54;100565.80;1707830;82;20947;-79
2022/12/30 06:39:59;;;;;;;4.70;0.98;;;;;;;6.35;77.58;100571.36;1703123;83;20922;-79
2022/12/30 06:42:25;;;;;;;4.05;1.25;;;;;;;6.34;77.57;100581.62;1702018;82;20954;-79
2022/12/30 06:44:52;;;;;;;6.80;1.60;;;;;;;6.30;77.53;100584.62;1690100;82;21428;-79
2022/12/30 06:47:18;;;;;;;4.22;1.37;;;;;;;6.27;77.53;100588.05;1706595;82;20896;-79
2022/12/30 06:49:45;;;;;;;3.52;1.20;;;;;;;6.22;77.51;100583.36;1704505;82;21022;-79
2022/12/30 06:52:12;;;;;;;8.35;1.90;;;;;;;6.19;77.51;100592.77;1705490;81;20882;-78
2022/12/30 06:54:39;;;;;;;5.25;1.55;;;;;;;6.16;77.50;100592.34;1748756;81;20947;-78
2022/12/30 06:57:05;;;;;;;6.75;1.72;;;;;;;6.13;77.50;100592.76;1755191;81;21328;-79
2022/12/30 06:59:32;;;;;;;7.15;1.70;;;;;;;6.09;77.50;100600.02;1755474;80;23814;-79
2022/12/30 07:01:58;;;;;;;5.87;1.70;;;;;;;6.06;77.47;100616.70;1753774;80;20957;-79
2022/12/30 07:04:25;;;;;;;6.78;2.05;;;;;;;6.02;77.46;100611.13;1753626;80;20906;-79
2022/12/30 07:06:51;;;;;;;6.10;1.85;;;;;;;5.96;77.49;100609.41;1754515;80;20933;-79
2022/12/30 07:09:18;;;;;;;2.83;1.47;;;;;;;5.93;77.47;100607.69;1752151;80;20909;-79
2022/12/30 07:11:45;;;;;;;6.50;2.20;;;;;;;5.89;77.41;100616.22;1735629;80;21063;-79
2022/12/30 07:14:11;;;;;;;6.10;1.47;;;;;;;5.85;77.45;100621.31;1752253;80;21148;-78
2022/12/30 07:16:37;;;;;;;5.05;1.82;;;;;;;5.81;77.42;100629.42;1753396;80;21060;-78
2022/12/30 07:19:04;;;;;;;7.75;1.98;;;;;;;5.78;77.47;100633.26;1754367;80;21084;-78
2022/12/30 07:21:30;;;;;;;3.40;1.40;;;;;;;5.75;77.42;100638.38;1751126;80;21056;-79
2022/12/30 07:23:58;;;;;;;3.27;1.52;;;;;;;5.73;77.44;100641.79;1752658;80;21064;-79
2022/12/30 07:26:24;;;;;;;7.83;2.60;;;;;;;5.69;77.39;100649.93;1747866;80;21566;-78
2022/12/30 07:28:55;;;;;;;4.03;1.52;;;;;;;5.65;77.40;100650.77;1754544;80;21545;-78
2022/12/30 07:31:22;;;;;;;5.30;1.80;;;;;;;5.61;77.39;100655.45;1752913;80;21550;-78
2022/12/30 07:33:49;;;;;;;5.00;1.75;;;;;;;5.59;77.41;100658.43;1753578;80;21076;-78
2022/12/30 07:36:15;;;;;;;7.03;2.02;;;;;;;5.58;77.43;100660.56;1747920;80;21056;-79
2022/12/30 07:38:42;;;;;;;3.40;1.45;;;;;;;5.57;77.45;100657.56;1751704;80;21887;-79
2022/12/30 07:41:08;;;;;;;4.47;1.72;;;;;;;5.56;77.44;100663.55;1750765;80;21542;-79
2022/12/30 07:43:35;;;;;;;6.25;2.10;;;;;;;5.55;77.44;100672.09;1753424;80;21644;-79
2022/12/30 07:46:09;;;;;;;8.30;1.95;;;;;;;5.56;77.43;100677.23;1750941;80;21075;-78
2022/12/30 07:48:37;;;;;;;5.70;1.80;;;;;;;5.57;77.45;100678.94;1747460;80;21123;-79
2022/12/30 07:51:13;;;;;;;6.65;2.08;;;;;;;5.57;77.45;100687.06;1760638;80;21637;-78
2022/12/30 07:53:40;;;;;;;5.67;1.72;;;;;;;5.57;77.46;100695.61;1731060;80;21041;-79
2022/12/30 07:56:11;;;;;;;8.85;2.77;;;;;;;5.63;77.52;100703.77;1720111;81;21134;-79
2022/12/30 07:58:38;;;;;;;12.07;2.25;;;;;;;5.69;77.53;100702.52;1727567;81;21773;-79
2022/12/30 08:01:10;;;;;;;9.00;2.60;;;;;;;5.74;77.49;100710.20;1747333;80;21120;-79
2022/12/30 08:03:37;;;;;;;8.90;3.10;;;;;;;5.75;77.50;100716.62;1706688;80;21398;-78
2022/12/30 08:06:08;;;;;;;8.98;2.98;;;;;;;5.81;77.54;100723.08;1736913;80;21026;-78
2022/12/30 08:08:35;;;;;;;6.80;3.17;;;;;;;5.87;77.56;100733.80;1737180;80;21104;-78
2022/12/30 08:11:04;;;;;;;8.25;2.90;;;;;;;5.92;77.56;100731.72;1736632;80;21639;-78
2022/12/30 08:13:34;;;;;;;6.15;3.35;;;;;;;6.00;77.58;100738.17;1718103;82;21687;-79
2022/12/30 08:16:14;;;;;;;10.03;2.95;;;;;;;6.06;77.57;100736.06;1712145;82;21068;-79
2022/12/30 08:18:41;;;;;;;8.53;2.92;;;;;;;6.10;77.56;100743.78;1689656;82;21518;-79
2022/12/30 08:21:12;;;;;;;6.55;2.85;;;;;;;6.13;77.57;100742.52;1731269;80;27485;-79
2022/12/30 08:23:39;;;;;;;6.95;3.92;;;;;;;6.18;77.57;100745.10;1726259;80;21071;-79
2022/12/30 08:26:09;;;;;;;8.80;3.62;;;;;;;6.22;77.57;100759.67;1700213;82;21064;-79
2022/12/30 08:28:36;;;;;;;7.17;3.00;;;;;;;6.24;77.56;100768.20;1701121;82;21194;-79
2022/12/30 08:31:09;;;;;;;;;;;;;;;6.27;77.60;100779.77;1700060;82;21076;-79
2022/12/30 08:33:36;;;;;;;11.63;2.72;;;;;;;6.29;77.59;100776.78;1738217;80;20158;-79
2022/12/30 08:36:06;;;;;;;9.38;3.00;;;;;;;6.33;77.61;100783.64;1741595;80;21120;-79
2022/12/30 08:38:40;;;;;;;7.87;2.70;;;;;;;6.36;77.60;100791.79;1699603;82;21510;-78
2022/12/30 08:41:13;;;;;;;7.12;3.10;;;;;;;6.38;77.61;100795.22;1704101;82;21511;-79
2022/12/30 08:43:40;;;;;;;11.85;3.10;;;;;;;6.40;77.62;100795.66;1706732;82;21109;-79
2022/12/30 08:46:07;;;;;;;11.08;2.75;;;;;;;6.41;77.59;100802.94;1701210;82;24874;-79
2022/12/30 08:48:34;;;;;;;7.50;2.33;;;;;;;6.42;77.63;100802.95;1726786;80;21112;-79
2022/12/30 08:51:02;;;;;;;13.95;2.90;;;;;;;6.44;77.62;100802.53;1729613;80;21075;-78
2022/12/30 08:53:28;;;;;;;9.00;2.37;;;;;;;6.45;77.62;100806.81;1724259;81;21096;-79
2022/12/30 08:56:01;;;;;;;6.78;2.50;;;;;;;6.47;77.62;100813.24;1742668;80;21111;-79
2022/12/30 08:58:27;;;;;;;7.25;2.47;;;;;;;6.49;77.62;100815.39;1714270;81;21076;-79
2022/12/30 09:00:54;;;;;;;12.00;3.12;;;;;;;6.51;77.63;100826.53;1718884;81;21168;-79
2022/12/30 09:03:20;;;;;;;7.20;2.58;;;;;;;6.53;77.63;100832.53;1738082;80;21476;-79
2022/12/30 09:05:54;;;;;;;7.87;2.60;;;;;;;6.55;77.63;100827.83;1751970;80;21932;-79
2022/12/30 09:08:21;;;;;;;11.65;2.62;;;;;;;6.58;77.63;100838.13;1713291;81;20965;-79
2022/12/30 09:11:04;;;;;;;4.90;1.95;;;;;;;6.60;77.62;100834.27;1748402;80;21004;-79
2022/12/30 09:13:32;;;;;;;8.08;2.05;;;;;;;6.46;77.81;100807.67;1741123;80;21477;-79
2022/12/30 09:15:58;;;;;;;6.08;1.77;;;;;;;6.67;77.65;100842.86;1726920;81;20993;-79
2022/12/30 09:18:25;;;;;;;8.43;2.25;;;;;;;6.71;77.64;100840.73;1741844;80;21097;-79
2022/12/30 09:20:51;;;;;;;6.75;2.58;;;;;;;6.73;77.63;100844.17;1722613;81;20992;-79
2022/12/30 09:23:18;;;;;;;5.90;2.47;;;;;;;6.77;77.68;100842.87;1750271;80;20904;-79
2022/12/30 09:25:45;;;;;;;5.47;2.40;;;;;;;6.79;77.65;100841.16;1746811;80;27505;-79
2022/12/30 09:28:11;;;;;;;7.70;2.08;;;;;;;6.82;77.64;100841.17;1719445;81;21008;-79
2022/12/30 09:30:38;;;;;;;5.72;1.95;;;;;;;6.86;77.64;100842.90;1746572;80;22438;-79
2022/12/30 09:33:05;;;;;;;9.43;2.60;;;;;;;6.89;77.65;100846.77;1717120;81;21806;-78
2022/12/30 09:35:32;;;;;;;5.20;1.80;;;;;;;6.93;77.67;100845.06;1748913;80;20881;-79
2022/12/30 09:37:59;;;;;;;5.12;2.37;;;;;;;6.97;77.66;100846.78;1757548;80;21016;-79
2022/12/30 09:40:48;;;;;;;8.58;2.00;;;;;;;7.00;77.64;100848.08;1723006;81;20984;-79
2022/12/30 09:43:28;;;;;;;6.97;2.00;;;;;;;7.05;77.65;100843.80;1752439;80;21370;-79
2022/12/30 09:46:16;;;;;;;6.70;1.87;;;;;;;7.09;77.66;100845.53;1703882;81;20902;-79
2022/12/30 09:48:48;;;;;;;5.60;2.10;;;;;;;7.14;77.66;100845.11;1745001;80;21474;-79
2022/12/30 09:51:18;;;;;;;7.95;1.85;;;;;;;7.19;77.64;100848.55;1749397;80;21018;-79
2022/12/30 09:53:55;;;;;;;5.05;1.98;;;;;;;7.24;77.64;100836.98;1720040;81;20918;-78
2022/12/30 09:56:36;;;;;;;;;;;;;;;7.28;77.63;100829.66;1737034;80;21642;-78
2022/12/30 09:59:16;;;;;;;6.03;1.87;;;;;;;7.34;77.52;100836.53;1739010;80;20107;-78
2022/12/30 10:01:49;;;;;;;5.42;1.80;;;;;;;7.38;77.62;100827.53;1730632;81;21452;-78
2022/12/30 10:04:19;;;;;;;9.40;1.77;;;;;;;7.43;77.62;100829.67;1711279;81;20978;-79
2022/12/30 10:07:18;;;;;;;9.60;2.05;;;;;;;7.47;77.58;100831.83;1717106;81;20946;-79
2022/12/30 10:10:12;;;;;;;4.67;1.95;;;;;;;7.51;77.58;100834.39;1713362;81;21187;-78
2022/12/30 10:13:10;;;;;;;8.20;2.00;;;;;;;7.56;77.57;100815.95;1708978;81;20990;-78
2022/12/30 10:15:57;;;;;;;6.45;2.33;;;;;;;7.60;77.54;100818.09;1714336;81;20894;-78
2022/12/30 10:18:49;;;;;;;7.80;2.00;;;;;;;7.63;77.52;100813.80;1713682;81;21479;-78
2022/12/30 10:21:58;;;;;;;9.58;2.10;;;;;;;7.67;77.51;100808.23;1708146;81;20962;-78
2022/12/30 10:24:47;;;;;;;28.30;14.65;;;;;;;7.70;77.46;100803.08;1711186;81;21119;-78
2022/12/30 10:27:20;;;;;;;56.60;28.98;;;;;;;7.71;77.47;100796.21;1711571;81;20994;-79
2022/12/30 10:29:47;;;;;;;19.90;13.62;;;;;;;7.73;77.42;100796.64;1713842;81;20978;-79
2022/12/30 10:32:20;;;;;;;21.55;12.18;;;;;;;7.75;77.41;100794.92;1711464;81;21470;-79
2022/12/30 10:34:57;;;;;;;14.55;7.97;;;;;;;7.78;77.43;100795.34;1713589;81;21323;-79
2022/12/30 10:37:36;;;;;;;10.72;6.15;;;;;;;7.81;77.41;100786.30;1674111;81;21932;-79
2022/12/30 10:40:11;;;;;;;12.82;7.08;;;;;;;7.83;77.38;100785.87;1712400;81;21314;-80
2022/12/30 10:43:06;;;;;;;16.97;7.70;;;;;;;7.86;77.37;100791.01;1720824;81;21834;-80
2022/12/30 10:46:07;;;;;;;27.20;11.20;;;;;;;7.89;77.37;100799.58;1702209;81;21804;-80
2022/12/30 10:48:54;;;;;;;67.78;37.03;;;;;;;7.93;77.29;100796.58;1711663;81;21049;-80
2022/12/30 10:51:21;;;;;;;35.90;21.95;;;;;;;7.96;77.25;100803.00;1712006;81;21944;-79
2022/12/30 10:53:50;;;;;;;24.85;13.35;;;;;;;8.01;77.28;100803.85;1713613;81;21712;-77
2022/12/30 10:56:32;;;;;;;25.92;18.20;;;;;;;8.04;77.25;100801.27;1715232;81;21385;-78
2022/12/30 10:59:03;;;;;;;14.40;8.25;;;;;;;8.08;77.25;100802.12;1716724;81;20906;-78
2022/12/30 11:01:35;;;;;;;23.50;15.45;;;;;;;8.12;77.16;100796.09;1704703;81;21001;-78
2022/12/30 11:04:03;;;;;;;13.40;6.08;;;;;;;8.13;77.20;100793.52;1709613;81;21802;-78
2022/12/30 11:06:35;;;;;;;15.45;6.62;;;;;;;8.17;77.20;100795.66;1711260;81;21465;-78
2022/12/30 11:09:18;;;;;;;9.23;4.12;;;;;;;8.17;77.10;100804.23;1718149;81;20914;-78
2022/12/30 11:14:44;;;;;;;6.83;3.83;;;;;;;8.21;77.09;100803.80;1701027;81;21028;-79
2022/12/30 11:17:24;;;;;;;7.97;3.62;;;;;;;8.23;77.08;100807.23;1719444;81;21841;-79
2022/12/30 11:20:04;;;;;;;8.20;3.90;;;;;;;8.24;77.04;100808.94;1721080;81;21026;-77
2022/12/30 11:22:31;;;;;;;7.90;3.95;;;;;;;8.25;77.04;100805.50;1692436;81;21680;-77
2022/12/30 11:25:25;;;;;;;9.08;3.08;;;;;;;8.27;77.01;100808.93;1716887;81;21037;-78
2022/12/30 11:27:58;;;;;;;9.23;4.90;;;;;;;8.28;76.99;100797.77;1716818;81;21105;-78
2022/12/30 11:30:37;;;;;;;7.37;3.70;;;;;;;8.27;76.94;100796.05;1713550;81;21162;-78
2022/12/30 11:33:07;;;;;;;10.70;3.25;;;;;;;8.28;76.89;100787.46;1715796;81;21717;-78
2022/12/30 11:35:46;;;;;;;10.55;3.90;;;;;;;8.29;76.91;100788.74;1703083;81;21675;-78
2022/12/30 11:38:33;;;;;;;6.60;2.65;;;;;;;8.29;76.91;100786.16;1717928;81;21348;-77
2022/12/30 11:41:23;;;;;;;7.47;2.62;;;;;;;8.30;76.87;100787.02;1713336;81;20976;-77
2022/12/30 11:44:04;;;;;;;8.15;3.15;;;;;;;8.32;76.82;100797.32;1717208;81;20989;-78
2022/12/30 11:46:38;;;;;;;7.17;2.65;;;;;;;8.32;76.82;100799.44;1615381;86;21021;-78
2022/12/30 11:49:33;;;;;;;11.08;3.72;;;;;;;8.34;76.80;100784.86;1615900;86;21055;-77
2022/12/30 11:52:07;;;;;;;7.62;2.77;;;;;;;8.34;76.78;100784.86;1618877;86;21085;-77
2022/12/30 11:54:42;;;;;;;6.92;2.58;;;;;;;8.35;76.73;100785.72;1619599;85;21006;-77
2022/12/30 11:57:22;;;;;;;9.83;2.47;;;;;;;8.35;76.76;100776.27;1617821;86;21840;-78
2022/12/30 11:59:56;;;;;;;4.50;2.25;;;;;;;8.37;76.72;100774.97;1616869;85;21103;-78
2022/12/30 12:02:27;;;;;;;8.53;2.15;;;;;;;8.37;76.68;100772.39;1617222;85;21237;-78
2022/12/30 12:04:54;;;;;;;6.12;2.15;;;;;;;8.37;76.67;100771.96;1613083;86;21107;-77
2022/12/30 12:07:26;;;;;;;10.18;2.10;;;;;;;8.37;76.63;100782.27;1619203;85;21542;-77
2022/12/30 12:10:22;;;;;;;9.45;2.90;;;;;;;8.37;76.60;100787.42;1622837;86;21274;-77
2022/12/30 12:12:56;;;;;;;6.87;1.80;;;;;;;8.39;76.60;100797.72;1622570;86;21037;-77
2022/12/30 12:15:36;;;;;;;6.75;2.08;;;;;;;8.40;76.55;100792.56;1621166;86;21553;-77
2022/12/30 12:18:11;;;;;;;8.43;2.42;;;;;;;8.42;76.56;100799.00;1624735;85;21601;-77
2022/12/30 12:21:14;;;;;;;8.48;2.02;;;;;;;8.43;76.55;100802.86;1621678;86;21481;-77
2022/12/30 12:23:58;;;;;;;6.58;2.12;;;;;;;8.45;76.49;100807.58;1666977;81;21207;-77
2022/12/30 12:26:48;;;;;;;10.45;2.52;;;;;;;8.46;76.46;100807.14;1717218;81;20958;-77
2022/12/30 12:29:15;;;;;;;5.12;1.80;;;;;;;8.46;76.44;100802.84;1717920;81;20962;-77
2022/12/30 12:32:02;;;;;;;7.40;2.40;;;;;;;8.47;76.37;100796.83;1712158;81;20979;-77
2022/12/30 12:34:40;;;;;;;9.08;1.98;;;;;;;8.47;76.41;100796.83;1711513;81;21045;-78
2022/12/30 12:37:46;;;;;;;10.85;2.62;;;;;;;8.47;76.34;100794.69;1715407;81;20954;-78
2022/12/30 12:40:49;;;;;;;9.68;2.77;;;;;;;8.47;76.32;100799.84;1714972;81;20934;-79
2022/12/30 12:43:23;;;;;;;15.25;6.87;;;;;;;8.46;76.26;100795.12;1716385;81;20906;-79
2022/12/30 12:46:17;;;;;;;8.78;3.85;;;;;;;8.45;76.20;100803.71;1711668;81;21478;-79
2022/12/30 12:49:17;;;;;;;7.67;2.45;;;;;;;8.44;76.18;100795.98;1666044;81;21430;-79
2022/12/30 12:52:10;;;;;;;8.73;2.52;;;;;;;8.43;76.13;100794.27;1710175;81;21043;-79
2022/12/30 12:54:57;;;;;;;6.58;2.10;;;;;;;8.40;76.09;100792.56;1715236;81;21818;-79
2022/12/30 12:57:54;;;;;;;6.72;2.22;;;;;;;8.39;76.09;100795.15;1730201;81;20978;-79
2022/12/30 13:00:23;;;;;;;3.98;1.85;;;;;;;8.37;76.05;100799.02;1726599;81;20901;-79